createdAt,value
2017-12-20T00:00:43.387Z,7.50
2017-12-20T00:03:11.664Z,7.13
2017-12-20T00:05:39.912Z,7.00
2017-12-20T00:08:08.193Z,6.53
2017-12-20T00:10:36.457Z,6.50
2017-12-20T00:13:04.737Z,6.93
2017-12-20T00:15:33.014Z,6.50
2017-12-20T00:18:01.326Z,7.50
2017-12-20T00:20:29.572Z,9.20
2017-12-20T00:22:57.834Z,6.17
2017-12-20T00:25:26.109Z,6.97
2017-12-20T00:27:54.431Z,6.20
2017-12-20T00:30:22.711Z,7.33
2017-12-20T00:32:50.985Z,7.27
2017-12-20T00:35:19.280Z,8.23
2017-12-20T00:37:47.646Z,6.83
2017-12-20T00:40:15.913Z,5.70
2017-12-20T00:42:44.169Z,6.57
2017-12-20T00:45:12.443Z,6.40
2017-12-20T00:47:40.702Z,6.63
2017-12-20T00:50:09.841Z,6.30
2017-12-20T00:52:38.101Z,6.63
2017-12-20T00:55:07.057Z,5.20
2017-12-20T00:57:36.084Z,5.73
2017-12-20T01:00:04.702Z,5.67
2017-12-20T01:02:32.985Z,7.23
2017-12-20T01:05:03.041Z,7.43
2017-12-20T01:07:32.100Z,7.60
2017-12-20T01:10:01.125Z,6.90
2017-12-20T01:12:30.385Z,6.30
2017-12-20T01:14:58.618Z,8.30
2017-12-20T01:17:26.893Z,8.50
2017-12-20T01:19:55.160Z,6.57
2017-12-20T01:22:24.214Z,8.60
2017-12-20T01:24:52.458Z,9.73
2017-12-20T01:27:20.752Z,8.37
2017-12-20T01:29:49.016Z,8.20
2017-12-20T01:32:17.292Z,8.80
2017-12-20T01:34:45.564Z,7.90
2017-12-20T01:37:13.840Z,8.57
2017-12-20T01:39:42.152Z,8.13
2017-12-20T01:42:10.441Z,9.10
2017-12-20T01:44:38.693Z,8.03
2017-12-20T01:47:06.953Z,7.70
2017-12-20T01:49:35.224Z,9.03
2017-12-20T01:52:03.485Z,7.27
2017-12-20T01:54:31.788Z,8.10
2017-12-20T01:57:00.052Z,8.33
2017-12-20T01:59:28.340Z,7.83
2017-12-20T02:01:56.608Z,7.60
2017-12-20T02:04:24.881Z,8.80
2017-12-20T02:06:53.184Z,7.57
2017-12-20T02:09:21.467Z,7.17
2017-12-20T02:11:49.717Z,6.53
2017-12-20T02:14:18.000Z,7.23
2017-12-20T02:16:46.254Z,6.20
2017-12-20T02:19:14.572Z,7.53
2017-12-20T02:21:42.836Z,6.00
2017-12-20T02:24:11.087Z,6.50
2017-12-20T02:26:39.359Z,6.50
2017-12-20T02:29:07.622Z,6.37
2017-12-20T02:31:36.678Z,7.13
2017-12-20T02:34:04.938Z,5.27
2017-12-20T02:36:33.253Z,6.30
2017-12-20T02:39:05.125Z,5.87
2017-12-20T02:41:33.396Z,6.30
2017-12-20T02:44:01.700Z,4.77
2017-12-20T02:46:30.748Z,6.60
2017-12-20T02:48:59.004Z,5.40
2017-12-20T02:51:27.304Z,4.40
2017-12-20T02:53:55.559Z,5.10
2017-12-20T02:56:23.828Z,5.33
2017-12-20T02:58:52.092Z,5.23
2017-12-20T03:01:20.388Z,5.20
2017-12-20T03:03:48.636Z,5.50
2017-12-20T03:06:16.879Z,5.27
2017-12-20T03:08:45.162Z,6.33
2017-12-20T03:11:13.520Z,5.43
2017-12-20T03:13:41.784Z,5.90
2017-12-20T03:16:10.039Z,4.50
2017-12-20T03:18:38.320Z,6.20
2017-12-20T03:21:06.576Z,6.30
2017-12-20T03:23:34.851Z,5.93
2017-12-20T03:26:03.175Z,5.67
2017-12-20T03:28:31.458Z,5.30
2017-12-20T03:30:59.705Z,4.50
2017-12-20T03:33:27.992Z,4.60
2017-12-20T03:35:56.239Z,3.60
2017-12-20T03:38:24.509Z,4.20
2017-12-20T03:40:53.555Z,4.37
2017-12-20T03:43:21.837Z,4.43
2017-12-20T03:45:50.114Z,3.47
2017-12-20T03:48:18.361Z,4.33
2017-12-20T03:50:46.628Z,4.70
2017-12-20T03:53:14.946Z,4.13
2017-12-20T03:55:43.327Z,4.37
2017-12-20T03:58:11.604Z,3.30
2017-12-20T04:00:39.864Z,3.53
2017-12-20T04:03:08.120Z,4.40
2017-12-20T04:05:36.435Z,4.70
2017-12-20T04:08:04.676Z,4.10
2017-12-20T04:10:32.953Z,4.30
2017-12-20T04:13:01.201Z,3.90
2017-12-20T04:15:30.245Z,4.50
2017-12-20T04:17:58.507Z,5.33
2017-12-20T04:20:26.771Z,5.40
2017-12-20T04:22:55.028Z,5.40
2017-12-20T04:25:24.083Z,6.13
2017-12-20T04:27:52.340Z,5.70
2017-12-20T04:30:20.637Z,6.23
2017-12-20T04:32:48.925Z,5.27
2017-12-20T04:35:17.188Z,4.90
2017-12-20T04:37:45.570Z,3.90
2017-12-20T04:40:13.812Z,5.87
2017-12-20T04:42:42.083Z,5.20
2017-12-20T04:45:10.395Z,5.50
2017-12-20T04:47:38.780Z,5.80
2017-12-20T04:50:07.031Z,5.57
2017-12-20T04:52:35.343Z,5.60
2017-12-20T04:55:03.624Z,5.87
2017-12-20T04:57:31.897Z,5.10
2017-12-20T05:00:01.684Z,5.73
2017-12-20T05:02:29.960Z,6.60
2017-12-20T05:04:58.215Z,5.53
2017-12-20T05:07:26.635Z,5.50
2017-12-20T05:09:54.899Z,7.07
2017-12-20T05:12:23.161Z,5.40
2017-12-20T05:14:51.436Z,5.90
2017-12-20T05:17:19.692Z,6.70
2017-12-20T05:19:47.988Z,6.90
2017-12-20T05:22:16.299Z,6.20
2017-12-20T05:24:44.581Z,6.70
2017-12-20T05:27:12.833Z,6.53
2017-12-20T05:29:41.936Z,5.50
2017-12-20T05:32:10.191Z,7.13
2017-12-20T05:34:38.491Z,7.40
2017-12-20T05:37:06.760Z,6.77
2017-12-20T05:39:35.028Z,6.70
2017-12-20T05:42:03.302Z,7.10
2017-12-20T05:44:31.613Z,7.50
2017-12-20T05:46:59.868Z,5.50
2017-12-20T05:49:28.123Z,6.20
2017-12-20T05:51:56.399Z,7.10
2017-12-20T05:54:24.720Z,9.50
2017-12-20T05:56:52.999Z,7.53
2017-12-20T05:59:21.256Z,7.90
2017-12-20T06:01:49.527Z,7.03
2017-12-20T06:04:17.805Z,7.13
2017-12-20T06:06:46.080Z,7.30
2017-12-20T06:09:15.097Z,6.13
2017-12-20T06:11:43.373Z,6.20
2017-12-20T06:14:11.622Z,7.20
2017-12-20T06:16:40.030Z,6.60
2017-12-20T06:19:08.264Z,6.60
2017-12-20T06:21:36.584Z,7.50
2017-12-20T06:24:04.881Z,6.83
2017-12-20T06:26:33.129Z,9.27
2017-12-20T06:29:01.435Z,7.43
2017-12-20T06:31:29.685Z,7.53
2017-12-20T06:33:57.952Z,6.20
2017-12-20T06:36:26.215Z,7.93
2017-12-20T06:38:54.485Z,8.73
2017-12-20T06:41:22.738Z,7.80
2017-12-20T06:43:51.793Z,9.03
2017-12-20T06:46:20.072Z,8.90
2017-12-20T06:48:48.348Z,8.30
2017-12-20T06:51:16.604Z,7.83
2017-12-20T06:53:44.890Z,8.67
2017-12-20T06:56:13.153Z,7.50
2017-12-20T06:58:41.451Z,7.37
2017-12-20T07:01:09.835Z,8.47
2017-12-20T07:03:38.113Z,7.20
2017-12-20T07:06:06.392Z,6.83
2017-12-20T07:08:34.680Z,7.73
2017-12-20T07:11:03.049Z,8.00
2017-12-20T07:13:31.305Z,8.53
2017-12-20T07:15:59.578Z,7.07
2017-12-20T07:18:27.841Z,9.33
2017-12-20T07:20:56.152Z,9.50
2017-12-20T07:23:24.413Z,8.93
2017-12-20T07:25:52.708Z,7.83
2017-12-20T07:28:20.944Z,8.80
2017-12-20T07:30:49.227Z,8.10
2017-12-20T07:33:17.471Z,9.73
2017-12-20T07:35:46.527Z,8.33
2017-12-20T07:38:14.780Z,9.43
2017-12-20T07:40:43.087Z,7.50
2017-12-20T07:43:11.340Z,7.20
2017-12-20T07:45:39.616Z,7.63
2017-12-20T07:48:07.875Z,7.10
2017-12-20T07:50:36.194Z,8.73
2017-12-20T07:53:04.488Z,8.33
2017-12-20T07:55:32.736Z,8.90
2017-12-20T07:58:01.153Z,7.53
2017-12-20T08:00:29.403Z,7.57
2017-12-20T08:02:57.778Z,8.23
2017-12-20T08:05:26.062Z,8.70
2017-12-20T08:07:54.328Z,8.93
2017-12-20T08:10:22.584Z,7.63
2017-12-20T08:12:50.864Z,8.67
2017-12-20T08:15:19.121Z,7.10
2017-12-20T08:17:47.408Z,8.10
2017-12-20T08:20:15.668Z,7.47
2017-12-20T08:22:43.947Z,9.93
2017-12-20T08:25:12.226Z,12.13
2017-12-20T08:27:40.554Z,7.90
2017-12-20T08:30:08.820Z,7.00
2017-12-20T08:32:37.112Z,7.37
2017-12-20T08:35:06.207Z,7.30
2017-12-20T08:37:34.452Z,7.00
2017-12-20T08:40:02.726Z,7.80
2017-12-20T08:42:30.988Z,7.70
2017-12-20T08:44:59.263Z,7.43
2017-12-20T08:47:27.533Z,8.90
2017-12-20T08:49:56.585Z,9.50
2017-12-20T08:52:24.836Z,8.47
2017-12-20T08:54:53.107Z,7.97
2017-12-20T08:57:21.413Z,7.57
2017-12-20T08:59:49.737Z,7.53
2017-12-20T09:02:18.035Z,10.50
2017-12-20T09:04:46.346Z,8.53
2017-12-20T09:07:14.640Z,9.07
2017-12-20T09:09:43.664Z,7.53
2017-12-20T09:12:12.714Z,9.13
2017-12-20T09:14:41.006Z,8.60
2017-12-20T09:17:09.297Z,8.77
2017-12-20T09:19:37.592Z,9.87
2017-12-20T09:22:06.073Z,8.00
2017-12-20T09:24:35.109Z,8.90
2017-12-20T09:27:03.393Z,10.00
2017-12-20T09:29:31.644Z,7.70
2017-12-20T09:31:59.917Z,10.73
2017-12-20T09:34:28.237Z,20.87
2017-12-20T09:39:31.032Z,8.80
2017-12-20T09:41:59.412Z,10.00
2017-12-20T09:44:27.665Z,10.00
2017-12-20T09:46:55.966Z,8.33
2017-12-20T09:49:24.237Z,9.00
2017-12-20T09:51:52.492Z,9.07
2017-12-20T09:54:20.796Z,9.90
2017-12-20T09:56:49.043Z,9.13
2017-12-20T09:59:17.312Z,9.77
2017-12-20T10:01:45.574Z,8.20
2017-12-20T10:04:14.620Z,10.10
2017-12-20T10:06:42.876Z,8.80
2017-12-20T10:09:11.157Z,17.67
2017-12-20T10:11:39.559Z,9.00
2017-12-20T10:14:07.811Z,7.83
2017-12-20T10:16:36.064Z,8.67
2017-12-20T10:19:04.380Z,7.80
2017-12-20T10:21:32.642Z,8.03
2017-12-20T10:24:00.927Z,7.53
2017-12-20T10:26:29.226Z,7.90
2017-12-20T10:28:57.504Z,8.80
2017-12-20T10:31:25.770Z,10.30
2017-12-20T10:33:54.152Z,10.17
2017-12-20T10:36:22.530Z,7.47
2017-12-20T10:38:50.771Z,7.60
2017-12-20T10:41:19.090Z,11.03
2017-12-20T10:43:47.345Z,11.20
2017-12-20T10:46:15.632Z,8.37
2017-12-20T10:48:43.914Z,10.57
2017-12-20T10:51:12.191Z,9.60
2017-12-20T10:53:40.468Z,8.40
2017-12-20T10:56:08.843Z,9.00
2017-12-20T10:58:37.091Z,8.73
2017-12-20T11:01:05.374Z,8.50
2017-12-20T11:03:33.635Z,27.60
2017-12-20T11:06:02.059Z,15.90
2017-12-20T11:08:30.644Z,12.83
2017-12-20T11:10:59.022Z,8.50
2017-12-20T11:13:27.283Z,8.03
2017-12-20T11:15:55.679Z,9.20
2017-12-20T11:18:23.936Z,9.33
2017-12-20T11:20:52.191Z,9.73
2017-12-20T11:23:20.463Z,7.77
2017-12-20T11:25:48.724Z,10.33
2017-12-20T11:28:17.878Z,8.43
2017-12-20T11:30:46.138Z,8.97
2017-12-20T11:33:14.438Z,10.50
2017-12-20T11:35:42.675Z,8.33
2017-12-20T11:38:10.962Z,11.20
2017-12-20T11:40:39.216Z,9.57
2017-12-20T11:43:07.495Z,9.47
2017-12-20T11:45:35.836Z,11.37
2017-12-20T11:48:04.100Z,10.00
2017-12-20T11:50:32.481Z,12.70
2017-12-20T11:53:00.757Z,13.77
2017-12-20T11:55:29.032Z,15.50
2017-12-20T11:57:57.320Z,15.37
2017-12-20T12:00:25.616Z,15.90
2017-12-20T12:02:54.644Z,15.30
2017-12-20T12:05:22.934Z,14.33
2017-12-20T12:07:51.181Z,12.20
2017-12-20T12:10:20.228Z,14.37
2017-12-20T12:12:48.488Z,12.73
2017-12-20T12:15:16.771Z,20.70
2017-12-20T12:17:45.036Z,14.83
2017-12-20T12:20:13.341Z,13.17
2017-12-20T12:22:41.593Z,12.90
2017-12-20T12:25:09.890Z,12.90
2017-12-20T12:27:38.184Z,12.00
2017-12-20T12:30:06.441Z,12.40
2017-12-20T12:32:34.826Z,12.20
2017-12-20T12:35:03.356Z,8.60
2017-12-20T12:37:32.409Z,10.27
2017-12-20T12:40:00.675Z,9.60
2017-12-20T12:42:29.059Z,9.53
2017-12-20T12:44:57.322Z,11.30
2017-12-20T12:47:25.717Z,9.23
2017-12-20T12:49:53.970Z,10.00
2017-12-20T12:52:22.268Z,10.30
2017-12-20T12:54:50.518Z,9.60
2017-12-20T12:57:18.793Z,8.77
2017-12-20T12:59:47.045Z,8.40
2017-12-20T13:02:16.194Z,8.83
2017-12-20T13:04:44.446Z,7.87
2017-12-20T13:07:12.855Z,7.87
2017-12-20T13:09:41.126Z,9.03
2017-12-20T13:12:09.375Z,8.77
2017-12-20T13:14:37.643Z,8.80
2017-12-20T13:17:05.923Z,6.90
2017-12-20T13:19:34.201Z,8.40
2017-12-20T13:22:02.516Z,8.97
2017-12-20T13:24:30.789Z,10.17
2017-12-20T13:26:59.062Z,8.00
2017-12-20T13:29:27.335Z,13.20
2017-12-20T13:31:55.597Z,9.60
2017-12-20T13:34:23.873Z,7.20
2017-12-20T13:36:52.123Z,9.13
2017-12-20T13:39:21.176Z,7.67
2017-12-20T13:41:49.438Z,6.87
2017-12-20T13:44:17.716Z,8.10
2017-12-20T13:46:45.989Z,8.87
2017-12-20T13:49:14.257Z,8.87
2017-12-20T13:51:42.512Z,8.97
2017-12-20T13:54:10.764Z,6.57
2017-12-20T13:56:39.833Z,7.53
2017-12-20T13:59:08.127Z,8.27
2017-12-20T14:01:36.392Z,6.30
2017-12-20T14:04:04.834Z,6.77
2017-12-20T14:06:33.141Z,8.43
2017-12-20T14:09:01.401Z,9.37
2017-12-20T14:11:29.669Z,8.67
2017-12-20T14:13:57.932Z,7.67
2017-12-20T14:16:26.200Z,7.03
2017-12-20T14:18:54.464Z,7.40
2017-12-20T14:21:23.499Z,7.50
2017-12-20T14:23:51.772Z,7.80
2017-12-20T14:26:20.060Z,6.57
2017-12-20T14:28:48.350Z,6.60
2017-12-20T14:31:16.605Z,6.83
2017-12-20T14:33:44.883Z,6.80
2017-12-20T14:36:13.136Z,6.20
2017-12-20T14:38:41.412Z,6.90
2017-12-20T14:41:09.680Z,4.97
2017-12-20T14:43:37.965Z,6.60
2017-12-20T14:46:06.224Z,7.37
2017-12-20T14:48:35.257Z,7.00
2017-12-20T14:51:03.544Z,5.77
2017-12-20T14:53:32.352Z,6.13
2017-12-20T14:56:00.630Z,14.33
2017-12-20T14:58:29.712Z,8.20
2017-12-20T15:00:57.984Z,8.30
2017-12-20T15:03:26.276Z,6.53
2017-12-20T15:05:54.554Z,6.10
2017-12-20T15:08:22.837Z,6.93
2017-12-20T15:10:51.212Z,8.57
2017-12-20T15:13:19.498Z,7.60
2017-12-20T15:15:47.875Z,6.10
2017-12-20T15:18:16.146Z,6.80
2017-12-20T15:20:44.432Z,9.50
2017-12-20T15:23:12.696Z,8.13
2017-12-20T15:25:40.966Z,8.70
2017-12-20T15:28:09.243Z,6.80
2017-12-20T15:30:37.544Z,6.63
2017-12-20T15:33:05.888Z,5.57
2017-12-20T15:35:34.148Z,9.10
2017-12-20T15:38:02.404Z,6.30
2017-12-20T15:40:31.457Z,7.70
2017-12-20T15:42:59.837Z,5.70
2017-12-20T15:45:28.140Z,7.60
2017-12-20T15:47:56.401Z,8.03
2017-12-20T15:50:24.772Z,8.27
2017-12-20T15:52:53.025Z,7.10
2017-12-20T15:55:21.285Z,8.07
2017-12-20T15:57:49.559Z,9.17
2017-12-20T16:00:17.822Z,8.30
2017-12-20T16:02:46.870Z,7.17
2017-12-20T16:05:15.135Z,8.80
2017-12-20T16:07:43.395Z,7.87
2017-12-20T16:10:11.686Z,7.73
2017-12-20T16:12:39.957Z,8.80
2017-12-20T16:15:08.261Z,8.03
2017-12-20T16:17:36.522Z,8.47
2017-12-20T16:20:04.776Z,8.77
2017-12-20T16:22:33.048Z,8.70
2017-12-20T16:25:01.326Z,8.33
2017-12-20T16:27:29.613Z,8.57
2017-12-20T16:29:57.918Z,9.73
2017-12-20T16:32:26.164Z,9.23
2017-12-20T16:34:54.474Z,8.23
2017-12-20T16:37:22.749Z,10.40
2017-12-20T16:39:51.049Z,11.00
2017-12-20T16:42:19.302Z,11.40
2017-12-20T16:44:47.556Z,10.30
2017-12-20T16:47:15.835Z,10.83
2017-12-20T16:49:44.097Z,11.30
2017-12-20T16:52:12.411Z,9.93
2017-12-20T16:54:40.664Z,11.77
2017-12-20T16:57:08.924Z,11.27
2017-12-20T16:59:37.220Z,11.40
2017-12-20T17:02:05.482Z,10.60
2017-12-20T17:04:33.771Z,10.10
2017-12-20T17:07:02.073Z,10.20
2017-12-20T17:09:30.353Z,11.67
2017-12-20T17:11:58.628Z,10.80
2017-12-20T17:14:26.909Z,10.93
2017-12-20T17:16:55.213Z,12.87
2017-12-20T17:19:24.244Z,11.67
2017-12-20T17:21:52.556Z,13.30
2017-12-20T17:24:20.936Z,10.90
2017-12-20T17:26:49.322Z,9.40
2017-12-20T17:29:17.622Z,12.93
2017-12-20T17:31:45.880Z,11.07
2017-12-20T17:34:14.257Z,11.30
2017-12-20T17:36:42.567Z,10.70
2017-12-20T17:39:10.935Z,12.20
2017-12-20T17:41:40.023Z,11.30
2017-12-20T17:44:08.380Z,11.40
2017-12-20T17:46:36.656Z,13.60
2017-12-20T17:49:05.035Z,10.70
2017-12-20T17:51:33.312Z,11.67
2017-12-20T17:54:01.594Z,12.00
2017-12-20T17:56:29.969Z,13.97
2017-12-20T17:58:58.245Z,10.47
2017-12-20T18:01:26.626Z,11.73
2017-12-20T18:03:54.882Z,12.67
2017-12-20T18:06:23.215Z,12.83
2017-12-20T18:08:51.460Z,10.10
2017-12-20T18:11:19.880Z,12.53
2017-12-20T18:13:48.176Z,14.60
2017-12-20T18:16:16.463Z,16.10
2017-12-20T18:18:44.742Z,15.63
2017-12-20T18:21:13.156Z,14.40
2017-12-20T18:23:41.404Z,14.80
2017-12-20T18:26:09.695Z,11.90
2017-12-20T18:28:37.968Z,12.77
2017-12-20T18:31:06.364Z,12.73
2017-12-20T18:33:34.619Z,14.80
2017-12-20T18:36:02.913Z,13.83
2017-12-20T18:38:31.213Z,10.60
2017-12-20T18:40:59.569Z,13.13
2017-12-20T18:43:27.864Z,12.63
2017-12-20T18:45:56.900Z,11.70
2017-12-20T18:48:25.213Z,16.37
2017-12-20T18:50:53.514Z,13.97
2017-12-20T18:53:21.775Z,13.27
2017-12-20T18:55:50.068Z,15.07
2017-12-20T18:58:19.147Z,13.30
2017-12-20T19:00:47.399Z,14.93
2017-12-20T19:03:15.705Z,13.33
2017-12-20T19:05:43.986Z,13.97
2017-12-20T19:08:12.352Z,14.17
2017-12-20T19:10:40.645Z,12.37
2017-12-20T19:13:09.017Z,14.87
2017-12-20T19:15:37.305Z,16.40
2017-12-20T19:18:05.555Z,16.00
2017-12-20T19:20:33.851Z,14.93
2017-12-20T19:23:02.123Z,13.77
2017-12-20T19:25:30.394Z,12.83
2017-12-20T19:27:58.676Z,14.80
2017-12-20T19:30:26.931Z,14.83
2017-12-20T19:32:55.225Z,13.70
2017-12-20T19:35:23.491Z,15.23
2017-12-20T19:37:51.785Z,13.00
2017-12-20T19:40:20.848Z,12.60
2017-12-20T19:42:49.161Z,14.73
2017-12-20T19:45:17.448Z,15.57
2017-12-20T19:47:45.778Z,16.67
2017-12-20T19:50:14.032Z,14.77
2017-12-20T19:52:43.186Z,14.03
2017-12-20T19:55:11.447Z,14.10
2017-12-20T19:57:39.847Z,14.93
2017-12-20T20:00:08.097Z,14.10
2017-12-20T20:02:36.379Z,14.33
2017-12-20T20:05:04.641Z,17.73
2017-12-20T20:07:32.905Z,14.90
2017-12-20T20:10:01.225Z,14.30
2017-12-20T20:12:29.484Z,15.40
2017-12-20T20:14:57.764Z,15.13
2017-12-20T20:17:26.024Z,14.73
2017-12-20T20:19:54.440Z,14.20
2017-12-20T20:22:22.758Z,16.00
2017-12-20T20:24:50.972Z,15.57
2017-12-20T20:27:19.427Z,14.10
2017-12-20T20:29:48.472Z,15.73
2017-12-20T20:32:16.761Z,14.60
2017-12-20T20:34:46.546Z,14.90
2017-12-20T20:37:14.831Z,14.13
2017-12-20T20:39:43.144Z,15.37
2017-12-20T20:42:12.168Z,14.80
2017-12-20T20:44:40.486Z,15.80
2017-12-20T20:47:08.740Z,14.60
2017-12-20T20:49:37.021Z,15.30
2017-12-20T20:52:05.284Z,17.37
2017-12-20T20:54:33.565Z,14.40
2017-12-20T20:57:01.828Z,13.97
2017-12-20T20:59:30.092Z,15.00
2017-12-20T21:01:59.145Z,15.30
2017-12-20T21:04:27.428Z,16.27
2017-12-20T21:06:55.708Z,14.17
2017-12-20T21:09:24.076Z,12.70
2017-12-20T21:11:52.364Z,14.90
2017-12-20T21:14:20.632Z,15.60
2017-12-20T21:16:48.901Z,13.97
2017-12-20T21:19:17.292Z,17.40
2017-12-20T21:21:45.564Z,14.17
2017-12-20T21:24:13.835Z,15.17
2017-12-20T21:26:42.092Z,15.70
2017-12-20T21:29:10.385Z,14.50
2017-12-20T21:31:38.667Z,15.43
2017-12-20T21:34:06.943Z,13.67
2017-12-20T21:36:35.211Z,15.07
2017-12-20T21:39:03.488Z,14.10
2017-12-20T21:41:31.768Z,16.77
2017-12-20T21:44:00.062Z,14.37
2017-12-20T21:46:28.312Z,14.43
2017-12-20T21:48:56.620Z,15.60
2017-12-20T21:51:26.392Z,13.67
2017-12-20T21:53:54.714Z,16.10
2017-12-20T21:56:22.956Z,18.30
2017-12-20T21:58:51.892Z,15.60
2017-12-20T22:01:20.188Z,15.87
2017-12-20T22:03:49.222Z,15.50
2017-12-20T22:06:17.524Z,14.40
2017-12-20T22:08:45.795Z,13.80
2017-12-20T22:11:14.044Z,14.73
2017-12-20T22:13:42.330Z,13.63
2017-12-20T22:16:10.629Z,15.03
2017-12-20T22:18:39.000Z,15.97
2017-12-20T22:21:07.260Z,15.33
2017-12-20T22:23:35.520Z,13.50
2017-12-20T22:26:03.792Z,13.50
2017-12-20T22:28:32.059Z,14.17
2017-12-20T22:31:00.365Z,13.90
2017-12-20T22:33:28.627Z,15.47
2017-12-20T22:35:56.916Z,12.47
2017-12-20T22:38:25.207Z,14.23
2017-12-20T22:40:53.461Z,16.07
2017-12-20T22:43:21.744Z,13.50
2017-12-20T22:45:50.042Z,17.37
2017-12-20T22:48:18.304Z,17.07
2017-12-20T22:50:46.578Z,14.80
2017-12-20T22:53:14.840Z,14.67
2017-12-20T22:55:43.141Z,12.00
2017-12-20T22:58:11.435Z,12.90
2017-12-20T23:00:39.700Z,15.20
2017-12-20T23:03:07.979Z,14.30
2017-12-20T23:05:36.239Z,12.60
2017-12-20T23:08:04.554Z,13.80
2017-12-20T23:10:32.799Z,12.30
2017-12-20T23:13:01.105Z,12.47
2017-12-20T23:15:29.384Z,13.90
2017-12-20T23:17:57.635Z,13.43
2017-12-20T23:20:25.940Z,13.13
2017-12-20T23:22:55.033Z,13.63
2017-12-20T23:25:23.320Z,11.57
2017-12-20T23:27:51.633Z,10.53
2017-12-20T23:30:19.897Z,13.37
2017-12-20T23:32:49.161Z,11.73
2017-12-20T23:35:17.403Z,11.60
2017-12-20T23:37:45.659Z,11.53
2017-12-20T23:40:13.936Z,9.50
2017-12-20T23:42:42.189Z,9.20
2017-12-20T23:45:10.441Z,8.43
2017-12-20T23:47:38.822Z,8.60
2017-12-20T23:50:07.107Z,9.27
2017-12-20T23:52:35.478Z,8.63
2017-12-20T23:55:03.787Z,8.97
2017-12-20T23:57:32.811Z,8.07
